Time;durP1;ratioP1;P1;durP2;ratioP2;P2;SDS_P1;SDS_P2;PMS_P1;PMS_P2;Temp;Humidity;BMP_temperature;BMP_pressure;BME280_temperature;BME280_humidity;BME280_pressure;Samples;Min_cycle;Max_cycle;Signal;HPM_P1;HPM_P2
2021/01/22 00:01:17;;;;;;;8.93;5.20;;;;;;;;;;5054383;28;20067;-71
2021/01/22 00:03:43;;;;;;;8.98;5.65;;;;;;;;;;5072490;28;20029;-68
2021/01/22 00:06:11;;;;;;;8.68;5.25;;;10.00;66.30;;;;;;5072617;28;20031;-71
2021/01/22 00:08:38;;;;;;;9.20;5.75;;;;;;;;;;5072338;28;20025;-69
2021/01/22 00:11:04;;;;;;;9.10;6.03;;;;;;;;;;5072415;28;20025;-69
2021/01/22 00:13:30;;;;;;;13.05;7.10;;;;;;;;;;5071949;28;20476;-70
2021/01/22 00:15:57;;;;;;;9.32;6.22;;;;;;;;;;5072247;28;20480;-68
2021/01/22 00:18:23;;;;;;;9.32;6.38;;;;;;;;;;5072205;28;20072;-71
2021/01/22 00:20:49;;;;;;;10.45;6.65;;;;;;;;;;5054070;28;20036;-68
2021/01/22 00:23:15;;;;;;;10.50;6.70;;;;;;;;;;5071956;28;20036;-71
2021/01/22 00:25:42;;;;;;;8.38;5.47;;;;;;;;;;5071977;28;20104;-69
2021/01/22 00:28:17;;;;;;;7.88;5.15;;;;;;;;;;5071864;28;20040;-70
2021/01/22 00:30:43;;;;;;;9.35;5.80;;;;;;;;;;5054066;28;20032;-69
2021/01/22 00:33:10;;;;;;;10.57;6.40;;;;;;;;;;5071809;28;20021;-69
2021/01/22 00:35:36;;;;;;;9.75;6.10;;;;;;;;;;5072122;28;20135;-68
2021/01/22 00:38:02;;;;;;;6.95;4.85;;;;;;;;;;5071780;28;20104;-67
2021/01/22 00:40:28;;;;;;;8.43;4.82;;;;;;;;;;5071662;28;20107;-69
2021/01/22 00:42:55;;;;;;;7.78;4.50;;;;;;;;;;5071065;28;20040;-69
2021/01/22 00:45:21;;;;;;;10.05;5.68;;;;;;;;;;5080123;28;20040;-69
2021/01/22 00:47:47;;;;;;;5.53;4.25;;;;;;;;;;5072082;28;20025;-69
2021/01/22 00:50:14;;;;;;;6.20;3.90;;;;;;;;;;5071598;28;20027;-69
2021/01/22 00:52:40;;;;;;;6.05;4.15;;;;;;;;;;5082266;28;20039;-69
2021/01/22 00:55:07;;;;;;;6.88;4.70;;;;;;;;;;5071666;28;20043;-68
2021/01/22 00:57:56;;;;;;;7.22;4.90;;;;;;;;;;5029210;28;20046;-70
2021/01/22 01:00:29;;;;;;;7.70;4.53;;;;;;;;;;5046164;28;20069;-69
2021/01/22 01:03:07;;;;;;;6.47;4.65;;;;;;;;;;5046111;28;20080;-71
2021/01/22 01:05:34;;;;;;;5.85;4.38;;;;;;;;;;5045877;28;20428;-69
2021/01/22 01:08:01;;;;;;;5.65;4.72;;;;;;;;;;5045985;28;20037;-70
2021/01/22 01:10:47;;;;;;;5.65;4.50;;;;;;;;;;5029542;28;20083;-70
2021/01/22 01:13:33;;;;;;;6.78;4.30;;;;;;;;;;5045534;28;20037;-71
2021/01/22 01:16:18;;;;;;;4.57;4.05;;;;;;;;;;5029274;28;20145;-70
2021/01/22 01:18:44;;;;;;;8.13;4.32;;;;;;;;;;5029190;28;20037;-71
2021/01/22 01:21:12;;;;;;;5.78;4.60;;;8.00;67.20;;;;;;5029237;28;20034;-71
2021/01/22 01:23:38;;;;;;;6.60;4.60;;;;;;;;;;5029311;28;20037;-69
2021/01/22 01:26:04;;;;;;;6.13;4.55;;;;;;;;;;5029204;28;20037;-71
2021/01/22 01:28:30;;;;;;;8.20;4.40;;;;;;;;;;5028955;28;20033;-69
2021/01/22 01:30:57;;;;;;;7.75;4.60;;;;;;;;;;5029203;28;20080;-69
2021/01/22 01:33:23;;;;;;;10.35;4.85;;;;;;;;;;5029486;28;20087;-70
2021/01/22 01:35:52;;;;;;;7.68;4.93;;;;;;;;;;5061125;28;20519;-71
2021/01/22 01:38:21;;;;;;;7.47;5.20;;;8.40;65.70;;;;;;5070987;28;20101;-71
2021/01/22 01:40:48;;;;;;;7.57;5.03;;;8.60;65.50;;;;;;5071007;28;20032;-71
2021/01/22 01:43:15;;;;;;;8.07;5.30;;;;;;;;;;5070878;28;20044;-71
2021/01/22 01:45:41;;;;;;;7.30;4.90;;;;;;;;;;5071130;28;20378;-71
2021/01/22 01:48:08;;;;;;;;;;;8.70;64.80;;;;;;5053654;28;20055;-68
2021/01/22 01:50:35;;;;;;;8.40;5.30;;;;;;;;;;5071449;28;19909;-68
2021/01/22 01:53:02;;;;;;;11.35;5.97;;;8.70;64.40;;;;;;5072920;28;20040;-69
2021/01/22 01:55:29;;;;;;;10.93;6.22;;;;;;;;;;5074778;28;20071;-70
2021/01/22 01:57:55;;;;;;;8.13;5.93;;;;;;;;;;5075011;28;20035;-70
2021/01/22 02:00:21;;;;;;;8.57;5.63;;;;;;;;;;5074636;28;20033;-70
2021/01/22 02:02:52;;;;;;;9.48;6.40;;;;;;;;;;5087031;28;20850;-69
2021/01/22 02:05:18;;;;;;;11.82;6.22;;;;;;;;;;5066431;28;20024;-69
2021/01/22 02:07:44;;;;;;;12.05;6.30;;;;;;;;;;5074765;28;20044;-68
2021/01/22 02:10:11;;;;;;;11.10;6.95;;;;;;;;;;5074118;28;20358;-70
2021/01/22 02:12:38;;;;;;;12.15;7.03;;;9.30;62.80;;;;;;5074805;28;20029;-70
2021/01/22 02:15:13;;;;;;;10.52;7.05;;;9.40;62.50;;;;;;5074443;28;20021;-70
2021/01/22 02:17:43;;;;;;;13.15;7.35;;;9.40;62.30;;;;;;5074894;28;20040;-70
2021/01/22 02:20:09;;;;;;;12.82;7.72;;;;;;;;;;5074601;28;20090;-70
2021/01/22 02:22:38;;;;;;;12.02;8.05;;;9.30;62.40;;;;;;5074221;28;20385;-67
2021/01/22 02:25:08;;;;;;;13.73;7.43;;;9.20;62.40;;;;;;5074000;28;20051;-70
2021/01/22 02:27:36;;;;;;;12.25;8.02;;;9.20;63.00;;;;;;5074527;28;20028;-69
2021/01/22 02:30:05;;;;;;;12.43;7.45;;;;;;;;;;5074549;28;20028;-68
2021/01/22 02:32:33;;;;;;;13.93;7.53;;;8.90;63.30;;;;;;5074785;28;20058;-69
2021/01/22 02:35:03;;;;;;;11.90;7.95;;;9.00;63.70;;;;;;5074180;28;20388;-70
2021/01/22 02:37:30;;;;;;;12.20;6.72;;;;;;;;;;5074574;28;20029;-70
2021/01/22 02:39:56;;;;;;;12.18;7.82;;;;;;;;;;5073636;28;20496;-70
2021/01/22 02:42:23;;;;;;;11.15;7.22;;;;;;;;;;5074001;28;20048;-70
2021/01/22 02:44:54;;;;;;;11.93;7.47;;;9.00;63.40;;;;;;5074102;28;20114;-69
2021/01/22 02:47:21;;;;;;;13.30;7.40;;;9.00;63.40;;;;;;5074224;28;20033;-69
2021/01/22 02:49:50;;;;;;;13.00;7.28;;;9.00;63.70;;;;;;5073839;28;20455;-70
2021/01/22 02:52:17;;;;;;;11.60;7.47;;;;;;;;;;5073976;28;20020;-69
2021/01/22 02:54:43;;;;;;;12.73;7.03;;;;;;;;;;5073461;28;20056;-66
2021/01/22 02:57:37;;;;;;;12.05;6.78;;;9.00;63.30;;;;;;5073814;28;20100;-68
2021/01/22 03:00:18;;;;;;;13.95;7.20;;;9.10;63.10;;;;;;5073774;28;20055;-67
2021/01/22 03:02:56;;;;;;;13.45;8.18;;;9.00;62.90;;;;;;5073834;28;20032;-68
2021/01/22 03:05:24;;;;;;;10.52;6.10;;;9.00;63.20;;;;;;5073433;28;20387;-69
2021/01/22 03:07:56;;;;;;;10.50;6.25;;;8.90;63.30;;;;;;5073267;28;20024;-68
2021/01/22 03:10:25;;;;;;;7.55;5.30;;;8.80;63.40;;;;;;5073469;28;20025;-67
2021/01/22 03:12:52;;;;;;;7.35;4.97;;;8.90;63.40;;;;;;5073624;28;20041;-68
2021/01/22 03:15:20;;;;;;;7.90;4.78;;;8.90;63.30;;;;;;5073383;28;20506;-68
2021/01/22 03:17:46;;;;;;;10.77;4.95;;;;;;;;;;5073562;28;20051;-68
2021/01/22 03:20:16;;;;;;;6.75;4.60;;;8.80;63.40;;;;;;5073153;28;20522;-70
2021/01/22 03:22:43;;;;;;;10.15;4.43;;;;;;;;;;5072731;28;20040;-68
2021/01/22 03:25:10;;;;;;;9.60;4.53;;;8.60;63.90;;;;;;5073517;28;20497;-69
2021/01/22 03:27:37;;;;;;;6.63;4.30;;;;;;;;;;5073154;28;20028;-70
2021/01/22 03:30:05;;;;;;;5.93;4.05;;;8.60;64.10;;;;;;5073363;28;20020;-70
2021/01/22 03:32:31;;;;;;;8.55;4.50;;;;;;;;;;5055622;28;20021;-66
2021/01/22 03:34:57;;;;;;;7.55;4.55;;;;;;;;;;5072877;28;20488;-69
2021/01/22 03:37:23;;;;;;;8.85;4.57;;;;;;;;;;5072583;28;20032;-69
2021/01/22 03:39:50;;;;;;;5.53;4.53;;;;;;;;;;5073096;28;20036;-69
2021/01/22 03:42:16;;;;;;;9.10;4.65;;;;;;;;;;5069953;28;20036;-67
2021/01/22 03:44:42;;;;;;;5.85;4.32;;;;;;;;;;5093188;28;20070;-67
2021/01/22 03:47:09;;;;;;;6.18;3.95;;;;;;;;;;5093087;28;20526;-69
2021/01/22 03:49:35;;;;;;;5.78;4.05;;;;;;;;;;5092720;28;20433;-69
2021/01/22 03:52:01;;;;;;;7.43;4.50;;;;;;;;;;5092296;28;20020;-69
2021/01/22 03:54:28;;;;;;;6.50;4.35;;;;;;;;;;5093333;28;20039;-69
2021/01/22 03:56:55;;;;;;;11.57;4.88;;;8.50;63.60;;;;;;5093034;28;20043;-68
2021/01/22 03:59:21;;;;;;;;;;;8.50;64.10;;;;;;5093265;28;20096;-68
2021/01/22 04:01:47;;;;;;;8.20;4.57;;;;;;;;;;5092798;28;19912;-68
2021/01/22 04:04:13;;;;;;;11.77;4.88;;;;;;;;;;5092477;28;20089;-68
2021/01/22 04:06:40;;;;;;;9.02;4.97;;;;;;;;;;5092266;28;20032;-67
2021/01/22 04:09:06;;;;;;;9.32;4.97;;;8.60;64.10;;;;;;5092529;28;20044;-68
2021/01/22 04:11:33;;;;;;;10.32;6.07;;;;;;;;;;5092662;28;20024;-68
2021/01/22 04:13:59;;;;;;;10.35;5.80;;;;;;;;;;5074457;28;20400;-68
2021/01/22 04:16:25;;;;;;;10.05;5.85;;;;;;;;;;5091923;28;20081;-68
2021/01/22 04:18:52;;;;;;;11.73;6.65;;;;;;;;;;5073698;28;20047;-68
2021/01/22 04:21:18;;;;;;;12.82;6.25;;;;;;;;;;5091575;28;20028;-67
2021/01/22 04:23:44;;;;;;;11.23;6.22;;;;;;;;;;5092727;28;20107;-68
2021/01/22 04:26:11;;;;;;;13.45;6.28;;;;;;;;;;5092376;28;20499;-67
2021/01/22 04:28:37;;;;;;;14.18;6.45;;;;;;;;;;5092393;28;20513;-68
2021/01/22 04:31:03;;;;;;;12.90;6.60;;;;;;;;;;5092197;28;20059;-68
2021/01/22 04:33:29;;;;;;;13.10;6.30;;;;;;;;;;5092421;28;20081;-68
2021/01/22 04:35:56;;;;;;;12.10;7.20;;;;;;;;;;5073563;28;20032;-67
2021/01/22 04:38:22;;;;;;;11.55;6.50;;;;;;;;;;5092131;28;20055;-67
2021/01/22 04:40:49;;;;;;;11.98;6.75;;;8.40;64.70;;;;;;5092222;28;20024;-68
2021/01/22 04:43:16;;;;;;;12.98;6.43;;;8.30;64.50;;;;;;5091744;28;20036;-67
2021/01/22 04:45:42;;;;;;;10.52;7.28;;;;;;;;;;5092227;28;20028;-66
2021/01/22 04:48:09;;;;;;;14.45;6.85;;;;;;;;;;5077787;28;20036;-68
2021/01/22 04:50:38;;;;;;;16.90;7.32;;;8.50;64.20;;;;;;5090344;28;20039;-67
2021/01/22 04:53:09;;;;;;;15.90;7.38;;;8.50;64.20;;;;;;5091867;28;20040;-67
2021/01/22 04:55:44;;;;;;;12.25;7.28;;;8.50;64.30;;;;;;5091951;28;20035;-67
2021/01/22 04:58:12;;;;;;;12.38;7.22;;;8.60;64.00;;;;;;5091899;28;20399;-66
2021/01/22 05:00:39;;;;;;;13.15;7.50;;;;;;;;;;5064048;28;20036;-66
2021/01/22 05:03:05;;;;;;;12.15;7.60;;;;;;;;;;5091879;28;20119;-67
2021/01/22 05:05:31;;;;;;;13.30;7.90;;;;;;;;;;5091312;28;20032;-66
2021/01/22 05:07:58;;;;;;;21.58;8.25;;;;;;;;;;5092043;28;20032;-66
2021/01/22 05:10:24;;;;;;;15.63;8.95;;;;;;;;;;5091886;28;20032;-66
2021/01/22 05:12:50;;;;;;;18.85;8.27;;;;;;;;;;5091792;28;20029;-66
2021/01/22 05:15:18;;;;;;;19.35;9.23;;;;;;;;;;5091526;28;20395;-67
2021/01/22 05:17:53;;;;;;;17.98;9.32;;;8.80;63.80;;;;;;5091615;28;20028;-68
2021/01/22 05:20:41;;;;;;;17.45;9.23;;;8.70;64.10;;;;;;5091401;28;20047;-65
2021/01/22 05:23:08;;;;;;;15.23;9.05;;;8.80;64.30;;;;;;5091558;28;20028;-65
2021/01/22 05:25:58;;;;;;;19.88;8.88;;;8.80;64.20;;;;;;5091535;28;20062;-68
2021/01/22 05:28:34;;;;;;;16.42;9.13;;;9.10;63.30;;;;;;5095577;28;20032;-67
2021/01/22 05:31:01;;;;;;;18.00;9.05;;;;;;;;;;5095829;28;20024;-67
2021/01/22 05:33:28;;;;;;;21.42;9.73;;;;;;;;;;5095370;28;20043;-65
2021/01/22 05:35:54;;;;;;;17.55;9.40;;;;;;;;;;5095606;28;20488;-66
2021/01/22 05:38:39;;;;;;;18.63;10.13;;;9.10;62.60;;;;;;5095488;28;20032;-65
2021/01/22 05:41:08;;;;;;;18.70;9.55;;;9.10;62.50;;;;;;5095578;28;20077;-64
2021/01/22 05:43:38;;;;;;;15.43;8.52;;;9.20;62.30;;;;;;5095768;28;20052;-68
2021/01/22 05:46:15;;;;;;;16.05;9.15;;;8.80;63.80;;;;;;5095424;28;20024;-66
2021/01/22 05:48:42;;;;;;;15.52;9.20;;;;;;;;;;5094929;28;20032;-65
2021/01/22 05:51:08;;;;;;;18.95;9.38;;;;;;;;;;5091158;28;20024;-68
2021/01/22 05:53:46;;;;;;;17.38;9.07;;;8.80;63.80;;;;;;5095140;28;20036;-67
2021/01/22 05:56:13;;;;;;;15.43;9.68;;;8.90;63.70;;;;;;5095187;28;20035;-66
2021/01/22 05:58:40;;;;;;;;;;;8.80;64.10;;;;;;5095413;28;20488;-64
2021/01/22 06:01:07;;;;;;;20.83;10.27;;;;;;;;;;5095237;28;19915;-64
2021/01/22 06:03:33;;;;;;;19.50;9.27;;;;;;;;;;5080093;28;20387;-65
2021/01/22 06:06:00;;;;;;;19.13;10.25;;;;;;;;;;5094734;28;20484;-66
2021/01/22 06:08:26;;;;;;;17.15;10.00;;;;;;;;;;5094702;28;20020;-66
2021/01/22 06:10:53;;;;;;;21.45;10.30;;;8.80;64.20;;;;;;5094902;28;20421;-65
2021/01/22 06:13:28;;;;;;;;;;;10.30;65.50;;;;;;5095385;28;20064;-66
2021/01/22 06:15:55;;;;;;;21.33;9.50;;;9.00;63.60;;;;;;5094592;28;19943;-66
2021/01/22 06:18:30;;;;;;;17.67;10.57;;;9.10;63.20;;;;;;5094542;28;20407;-66
2021/01/22 06:21:13;;;;;;;20.00;10.77;;;9.10;62.80;;;;;;5094275;28;20062;-66
2021/01/22 06:23:40;;;;;;;24.00;9.95;;;;;;;;;;5094748;28;20040;-66
2021/01/22 06:26:06;;;;;;;25.08;10.15;;;;;;;;;;5076092;28;20384;-66
2021/01/22 06:28:33;;;;;;;18.17;9.65;;;9.20;62.60;;;;;;5094570;28;20024;-63
2021/01/22 06:30:59;;;;;;;20.02;11.18;;;;;;;;;;4376793;28;10000707;-66
2021/01/22 06:33:25;;;;;;;22.70;9.77;;;;;;;;;;5073229;28;20484;-65
2021/01/22 06:35:52;;;;;;;16.27;9.82;;;;;;;;;;5075699;28;20051;-65
2021/01/22 06:38:22;;;;;;;;;;;9.30;62.20;;;;;;5088513;28;20047;-66
2021/01/22 06:40:51;;;;;;;19.20;10.15;;;9.30;62.20;;;;;;5075843;28;19908;-65
2021/01/22 06:43:18;;;;;;;18.67;10.40;;;9.30;62.30;;;;;;5087490;28;20044;-66
2021/01/22 06:45:44;;;;;;;;;;;9.20;63.30;;;;;;5076526;28;20319;-65
2021/01/22 06:48:11;;;;;;;17.92;9.88;;;;;;;;;;5087091;28;19919;-65
2021/01/22 06:50:38;;;;;;;18.48;10.27;;;8.80;63.70;;;;;;5079222;28;20036;-64
2021/01/22 06:53:07;;;;;;;16.73;9.70;;;8.80;63.90;;;;;;5085071;28;20036;-66
2021/01/22 06:55:33;;;;;;;17.42;9.00;;;;;;;;;;5063599;28;20028;-66
2021/01/22 06:58:27;;;;;;;20.35;10.02;;;8.80;63.70;;;;;;5091684;28;20035;-65
2021/01/22 07:00:54;;;;;;;17.42;9.20;;;8.90;63.20;;;;;;5067046;28;20024;-67
2021/01/22 07:03:35;;;;;;;24.00;10.48;;;8.90;63.00;;;;;;5091081;28;20433;-67
2021/01/22 07:06:24;;;;;;;19.77;10.00;;;8.90;63.10;;;;;;5065594;28;20060;-65
2021/01/22 07:08:58;;;;;;;26.38;9.20;;;8.80;63.50;;;;;;5088647;28;20024;-64
2021/01/22 07:11:24;;;;;;;17.73;9.50;;;8.60;64.40;;;;;;5091212;28;20781;-66
2021/01/22 07:13:52;;;;;;;21.35;10.05;;;8.50;64.50;;;;;;5072687;28;20040;-65
2021/01/22 07:16:18;;;;;;;25.23;10.30;;;;;;;;;;5091138;28;20108;-64
2021/01/22 07:18:56;;;;;;;16.83;9.95;;;8.80;63.70;;;;;;5090776;28;20040;-65
2021/01/22 07:21:29;;;;;;;20.15;10.60;;;8.80;63.60;;;;;;5091004;28;20076;-66
2021/01/22 07:23:57;;;;;;;21.00;10.90;;;8.90;63.60;;;;;;5090448;28;20043;-65
2021/01/22 07:26:37;;;;;;;19.95;10.27;;;8.90;63.20;;;;;;5091037;28;20028;-67
2021/01/22 07:29:18;;;;;;;19.55;9.60;;;8.90;63.40;;;;;;5090266;28;20047;-65
2021/01/22 07:31:56;;;;;;;20.55;10.27;;;9.00;63.00;;;;;;5071055;28;20032;-65
2021/01/22 07:34:37;;;;;;;19.15;10.75;;;8.90;62.80;;;;;;5081406;28;20485;-65
2021/01/22 07:37:07;;;;;;;22.15;10.63;;;9.10;62.60;;;;;;5080834;28;20040;-67
2021/01/22 07:39:34;;;;;;;25.65;10.65;;;;;;;;;;5090543;28;20032;-65
2021/01/22 07:42:22;;;;;;;17.13;10.13;;;9.20;62.40;;;;;;5090377;28;20055;-65
2021/01/22 07:44:54;;;;;;;20.23;9.13;;;9.20;62.50;;;;;;5089244;28;20109;-66
2021/01/22 07:47:30;;;;;;;19.63;9.40;;;9.20;62.40;;;;;;5090686;28;20036;-67
2021/01/22 07:50:11;;;;;;;17.95;9.68;;;9.20;62.30;;;;;;5089257;28;20028;-66
2021/01/22 07:52:47;;;;;;;21.48;10.55;;;9.10;62.40;;;;;;5090476;28;20044;-67
2021/01/22 07:55:17;;;;;;;26.60;9.73;;;9.20;62.40;;;;;;5089385;28;20040;-64
2021/01/22 07:57:44;;;;;;;18.02;9.63;;;;;;;;;;5071628;28;20038;-66
2021/01/22 08:00:14;;;;;;;20.00;9.45;;;9.20;62.10;;;;;;5071137;28;20044;-64
2021/01/22 08:02:57;;;;;;;20.00;9.43;;;9.30;61.80;;;;;;5090345;28;20032;-66
2021/01/22 08:05:31;;;;;;;18.30;9.35;;;9.20;62.00;;;;;;5072788;28;20504;-66
2021/01/22 08:07:57;;;;;;;17.17;10.00;;;;;;;;;;5067531;28;20028;-65
2021/01/22 08:10:30;;;;;;;17.73;9.70;;;9.20;62.60;;;;;;5084950;28;20032;-66
2021/01/22 08:12:59;;;;;;;27.42;8.95;;;9.20;62.50;;;;;;5091620;28;20442;-66
2021/01/22 08:15:26;;;;;;;18.83;9.68;;;9.00;63.10;;;;;;5091802;28;20023;-67
2021/01/22 08:17:53;;;;;;;17.55;9.27;;;;;;;;;;5092100;28;20035;-65
2021/01/22 08:20:20;;;;;;;20.52;9.75;;;9.10;62.80;;;;;;5091864;28;20085;-66
2021/01/22 08:22:57;;;;;;;18.50;10.18;;;9.10;62.90;;;;;;5091968;28;20396;-65
2021/01/22 08:25:35;;;;;;;17.60;9.68;;;9.00;63.30;;;;;;5091840;28;20074;-65
2021/01/22 08:28:04;;;;;;;18.17;8.82;;;9.00;63.40;;;;;;5066076;28;20031;-67
2021/01/22 08:30:30;;;;;;;23.08;10.77;;;;;;;;;;5091984;28;20562;-66
2021/01/22 08:32:57;;;;;;;19.55;8.88;;;;;;;;;;5091910;28;20043;-66
2021/01/22 08:35:24;;;;;;;22.08;9.50;;;9.20;63.30;;;;;;5070359;28;20055;-65
2021/01/22 08:37:52;;;;;;;19.40;9.13;;;9.00;63.60;;;;;;5090065;28;20036;-66
2021/01/22 08:40:18;;;;;;;23.63;8.90;;;;;;;;;;5091969;28;20067;-65
2021/01/22 08:43:12;;;;;;;20.77;8.80;;;9.00;63.70;;;;;;5090975;28;20060;-65
2021/01/22 08:45:42;;;;;;;24.38;9.20;;;9.20;63.30;;;;;;5091317;28;20024;-65
2021/01/22 08:48:09;;;;;;;22.20;9.77;;;;;;;;;;5091614;28;20028;-66
2021/01/22 08:50:35;;;;;;;22.58;10.07;;;;;;;;;;5091736;28;20031;-65
2021/01/22 08:53:13;;;;;;;24.38;9.85;;;9.40;62.70;;;;;;5091393;28;20036;-66
2021/01/22 08:55:40;;;;;;;18.90;8.90;;;;;;;;;;5065070;28;20059;-66
2021/01/22 08:58:09;;;;;;;;;;;9.30;62.90;;;;;;5091543;28;20032;-66
2021/01/22 09:00:36;;;;;;;21.73;9.45;;;;;;;;;;5091320;28;19951;-67
2021/01/22 09:03:02;;;;;;;17.52;8.93;;;;;;;;;;5091357;28;20059;-62
2021/01/22 09:05:29;;;;;;;22.80;10.48;;;;;;;;;;5073370;28;20036;-64
2021/01/22 09:08:12;;;;;;;20.75;9.57;;;9.40;63.20;;;;;;5078096;28;20024;-66
2021/01/22 09:10:49;;;;;;;21.08;9.30;;;9.40;62.80;;;;;;5090573;28;20038;-65
2021/01/22 09:13:23;;;;;;;21.13;11.05;;;9.50;63.10;;;;;;5091101;28;20452;-67
2021/01/22 09:16:05;;;;;;;30.25;10.45;;;9.30;63.40;;;;;;5091222;28;20039;-66
2021/01/22 09:18:32;;;;;;;23.70;9.80;;;;;;;;;;5091122;28;20492;-67
2021/01/22 09:21:04;;;;;;;21.77;9.13;;;9.50;63.00;;;;;;5090742;28;20476;-66
2021/01/22 09:23:30;;;;;;;17.35;9.07;;;;;;;;;;5090850;28;20039;-64
2021/01/22 09:25:57;;;;;;;23.77;9.32;;;;;;;;;;5090381;28;20392;-64
2021/01/22 09:28:23;;;;;;;18.50;8.80;;;;;;;;;;5091402;28;20032;-65
2021/01/22 09:30:50;;;;;;;15.25;9.25;;;;;;;;;;5091078;28;20124;-64
2021/01/22 09:33:17;;;;;;;22.05;8.98;;;9.70;62.70;;;;;;5090882;28;20068;-66
2021/01/22 09:35:42;;;;;;;;;;;9.70;63.20;;;;;;5067993;28;20036;-64
2021/01/22 09:38:09;;;;;;;22.50;9.43;;;;;;;;;;5090499;28;19911;-65
2021/01/22 09:40:35;;;;;;;15.57;8.07;;;;;;;;;;5090789;28;20070;-65
2021/01/22 09:43:02;;;;;;;19.52;8.68;;;;;;;;;;5090821;28;20048;-64
2021/01/22 09:45:28;;;;;;;24.77;10.20;;;;;;;;;;5090420;28;20040;-65
2021/01/22 09:47:54;;;;;;;21.40;9.15;;;;;;;;;;5090791;28;20024;-67
2021/01/22 09:50:20;;;;;;;18.95;8.70;;;;;;;;;;5090685;28;20116;-64
2021/01/22 09:52:47;;;;;;;19.90;8.00;;;;;;;;;;5090634;28;20032;-66
2021/01/22 09:55:18;;;;;;;21.35;9.15;;;9.80;62.00;;;;;;5075056;28;20028;-66
2021/01/22 09:57:45;;;;;;;23.15;9.27;;;;;;;;;;5090968;28;20036;-66
2021/01/22 10:00:16;;;;;;;22.48;9.18;;;9.80;62.00;;;;;;5090680;28;20051;-64
2021/01/22 10:02:42;;;;;;;20.65;8.43;;;;;;;;;;5090634;28;20032;-64
2021/01/22 10:05:09;;;;;;;16.20;8.00;;;;;;;;;;5076914;28;20387;-64
2021/01/22 10:07:35;;;;;;;12.30;7.25;;;9.70;62.70;;;;;;5026102;28;20028;-64
2021/01/22 10:10:03;;;;;;;17.38;7.72;;;9.70;62.60;;;;;;5083724;28;20035;-66
2021/01/22 10:12:29;;;;;;;18.67;7.60;;;;;;;;;;5090610;28;20040;-64
2021/01/22 10:14:55;;;;;;;16.75;7.97;;;;;;;;;;5075270;28;20043;-64
2021/01/22 10:17:22;;;;;;;20.02;8.20;;;;;;;;;;5094127;28;20031;-66
2021/01/22 10:19:48;;;;;;;14.13;6.68;;;;;;;;;;5094000;28;20093;-66
2021/01/22 10:22:15;;;;;;;17.25;7.75;;;;;;;;;;5084480;28;20073;-65
2021/01/22 10:24:42;;;;;;;18.30;7.68;;;;;;;;;;5081240;28;20032;-64
2021/01/22 10:27:08;;;;;;;23.83;8.20;;;;;;;;;;5079632;28;20032;-66
2021/01/22 10:29:35;;;;;;;15.18;7.72;;;;;;;;;;5094115;28;20055;-64
2021/01/22 10:32:01;;;;;;;25.00;8.18;;;;;;;;;;5093926;28;20024;-65
2021/01/22 10:34:27;;;;;;;20.67;7.75;;;;;;;;;;5084002;28;20029;-66
2021/01/22 10:36:53;;;;;;;20.02;7.65;;;;;;;;;;5080865;28;20063;-66
2021/01/22 10:39:20;;;;;;;21.00;8.27;;;;;;;;;;5093266;28;20043;-65
2021/01/22 10:41:46;;;;;;;19.52;8.20;;;;;;;;;;5093505;28;20070;-65
2021/01/22 10:44:12;;;;;;;13.63;6.88;;;;;;;;;;5093755;28;20068;-65
2021/01/22 10:46:38;;;;;;;17.55;6.53;;;;;;;;;;5093881;28;20118;-63
2021/01/22 10:49:05;;;;;;;14.20;6.97;;;;;;;;;;5079983;28;20032;-65
2021/01/22 10:51:31;;;;;;;18.40;6.35;;;;;;;;;;5076248;28;20104;-64
2021/01/22 10:53:57;;;;;;;16.08;6.55;;;;;;;;;;5075652;28;20484;-64
2021/01/22 10:56:25;;;;;;;17.85;6.18;;;;;;;;;;5076822;28;20021;-66
2021/01/22 10:58:52;;;;;;;20.88;6.13;;;;;;;;;;5078948;28;20105;-65
2021/01/22 11:01:18;;;;;;;17.70;6.93;;;;;;;;;;5081045;28;20373;-66
2021/01/22 11:03:45;;;;;;;13.45;5.85;;;;;;;;;;5079005;28;20024;-64
2021/01/22 11:06:11;;;;;;;14.20;6.45;;;;;;;;;;5072414;28;20100;-64
2021/01/22 11:08:37;;;;;;;13.95;5.97;;;;;;;;;;5081336;28;20032;-65
2021/01/22 11:11:04;;;;;;;18.80;5.88;;;;;;;;;;5078605;28;20016;-65
2021/01/22 11:13:30;;;;;;;14.65;5.47;;;;;;;;;;5083993;28;20028;-66
2021/01/22 11:15:56;;;;;;;11.52;5.50;;;;;;;;;;5073505;28;20017;-65
2021/01/22 11:18:23;;;;;;;13.05;5.47;;;;;;;;;;5080270;28;20440;-66
2021/01/22 11:20:50;;;;;;;16.80;5.65;;;12.40;56.00;;;;;;5082932;28;20032;-67
2021/01/22 11:23:16;;;;;;;11.82;5.50;;;;;;;;;;5076646;28;20027;-66
2021/01/22 11:25:43;;;;;;;16.45;5.50;;;12.30;55.30;;;;;;5080502;28;20456;-66
2021/01/22 11:28:09;;;;;;;22.30;5.15;;;;;;;;;;5074383;28;20032;-65
2021/01/22 11:30:35;;;;;;;13.93;4.90;;;;;;;;;;5085020;28;20024;-65
2021/01/22 11:33:01;;;;;;;15.32;4.80;;;;;;;;;;5075731;28;20035;-65
2021/01/22 11:35:28;;;;;;;10.80;5.00;;;;;;;;;;5082739;28;20086;-65
2021/01/22 11:37:54;;;;;;;9.15;4.60;;;;;;;;;;5076937;28;20040;-67
2021/01/22 11:40:20;;;;;;;10.68;4.32;;;;;;;;;;5078198;28;20039;-65
2021/01/22 11:42:49;;;;;;;14.18;4.60;;;;;;;;;;5079768;28;20439;-66
2021/01/22 11:45:17;;;;;;;13.45;5.45;;;12.30;54.20;;;;;;5074752;28;20032;-63
2021/01/22 11:47:43;;;;;;;17.20;5.10;;;;;;;;;;5085066;28;20059;-66
2021/01/22 11:50:09;;;;;;;15.88;4.95;;;;;;;;;;5074580;28;20449;-66
2021/01/22 11:52:36;;;;;;;11.05;5.60;;;;;;;;;;5081818;28;20040;-65
2021/01/22 11:55:02;;;;;;;13.77;5.30;;;;;;;;;;5091991;28;20598;-65
2021/01/22 11:57:28;;;;;;;18.98;5.38;;;;;;;;;;5092748;28;20035;-65
2021/01/22 11:59:55;;;;;;;12.88;5.38;;;;;;;;;;5092590;28;20115;-65
2021/01/22 12:02:21;;;;;;;10.98;4.82;;;;;;;;;;5092109;28;20043;-66
2021/01/22 12:04:47;;;;;;;10.15;4.90;;;;;;;;;;5083212;28;20086;-66
2021/01/22 12:07:15;;;;;;;11.43;5.20;;;12.20;53.90;;;;;;5068965;28;20529;-66
2021/01/22 12:09:41;;;;;;;17.58;5.57;;;;;;;;;;5092057;28;20028;-66
2021/01/22 12:12:09;;;;;;;23.35;5.38;;;12.10;54.30;;;;;;5091369;28;20084;-64
2021/01/22 12:14:35;;;;;;;18.13;5.38;;;;;;;;;;5091742;28;20032;-65
2021/01/22 12:17:01;;;;;;;15.68;4.90;;;;;;;;;;5091889;28;20032;-66
2021/01/22 12:19:27;;;;;;;12.63;5.05;;;;;;;;;;5091775;28;20556;-65
2021/01/22 12:21:54;;;;;;;12.48;4.85;;;;;;;;;;5091687;28;20031;-65
2021/01/22 12:24:20;;;;;;;12.80;5.47;;;;;;;;;;5091338;28;20705;-65
2021/01/22 12:26:47;;;;;;;15.18;5.38;;;;;;;;;;5091673;28;20024;-66
2021/01/22 12:29:13;;;;;;;14.00;5.60;;;;;;;;;;5091351;28;20145;-66
2021/01/22 12:31:39;;;;;;;12.82;4.95;;;;;;;;;;5091776;28;20135;-64
2021/01/22 12:34:06;;;;;;;8.55;4.82;;;;;;;;;;5087020;28;20097;-66
2021/01/22 12:36:32;;;;;;;15.10;5.45;;;;;;;;;;5072342;28;20424;-64
2021/01/22 12:39:00;;;;;;;12.57;5.30;;;;;;;;;;5091394;28;20144;-66
2021/01/22 12:41:28;;;;;;;11.93;4.68;;;;;;;;;;5063454;28;20040;-65
2021/01/22 12:43:54;;;;;;;16.77;5.30;;;;;;;;;;5091386;28;20052;-66
2021/01/22 12:46:21;;;;;;;9.88;4.90;;;;;;;;;;5091527;28;20043;-66
2021/01/22 12:48:47;;;;;;;14.20;5.57;;;;;;;;;;5090865;28;20032;-65
2021/01/22 12:51:13;;;;;;;13.13;5.43;;;;;;;;;;5091132;28;20034;-66
2021/01/22 12:53:40;;;;;;;18.75;6.10;;;;;;;;;;5090832;28;20488;-67
2021/01/22 12:56:06;;;;;;;13.00;5.28;;;;;;;;;;5091456;28;20024;-65
2021/01/22 12:58:32;;;;;;;17.60;5.75;;;;;;;;;;5091102;28;20024;-67
2021/01/22 13:00:58;;;;;;;12.23;5.13;;;;;;;;;;5091598;28;20059;-65
2021/01/22 13:03:25;;;;;;;8.77;4.82;;;;;;;;;;5090675;28;20028;-65
2021/01/22 13:05:51;;;;;;;8.90;4.53;;;;;;;;;;5067183;28;21002;-65
2021/01/22 13:08:17;;;;;;;12.13;5.20;;;;;;;;;;5075326;28;20484;-65
2021/01/22 13:10:44;;;;;;;11.68;4.72;;;;;;;;;;5091037;28;20024;-67
2021/01/22 13:13:10;;;;;;;9.35;4.90;;;;;;;;;;5091418;28;20032;-66
2021/01/22 13:15:36;;;;;;;12.52;5.32;;;;;;;;;;5090723;28;20459;-65
2021/01/22 13:18:03;;;;;;;15.35;5.00;;;;;;;;;;5090796;28;20035;-66
2021/01/22 13:20:29;;;;;;;12.75;4.80;;;;;;;;;;5090730;28;20032;-65
2021/01/22 13:22:55;;;;;;;16.17;5.05;;;;;;;;;;5090968;28;20039;-65
2021/01/22 13:25:23;;;;;;;10.63;5.30;;;13.10;51.00;;;;;;5091000;28;20043;-65
2021/01/22 13:27:49;;;;;;;12.38;4.80;;;;;;;;;;5085066;28;20032;-65
2021/01/22 13:30:16;;;;;;;9.38;5.05;;;;;;;;;;5082938;28;20069;-66
2021/01/22 13:32:42;;;;;;;11.60;4.30;;;;;;;;;;5090346;28;20119;-65
2021/01/22 13:35:09;;;;;;;16.23;4.45;;;;;;;;;;5071471;28;20029;-65
2021/01/22 13:37:37;;;;;;;16.50;4.63;;;;;;;;;;5086826;28;20388;-66
2021/01/22 13:40:04;;;;;;;18.80;6.20;;;;;;;;;;5090452;28;20039;-66
2021/01/22 13:42:30;;;;;;;15.02;4.65;;;;;;;;;;5090439;28;20060;-66
2021/01/22 13:44:57;;;;;;;11.73;4.40;;;;;;;;;;5090747;28;20024;-65
2021/01/22 13:47:23;;;;;;;11.20;4.72;;;;;;;;;;5090089;28;20060;-64
2021/01/22 13:49:49;;;;;;;15.90;5.40;;;;;;;;;;5093823;28;20024;-65
2021/01/22 13:52:16;;;;;;;13.88;4.85;;;;;;;;;;5094485;28;20050;-66
2021/01/22 13:54:42;;;;;;;13.05;5.10;;;;;;;;;;5094524;28;20696;-66
2021/01/22 13:57:08;;;;;;;9.52;4.75;;;;;;;;;;5094588;28;20023;-65
2021/01/22 13:59:34;;;;;;;12.98;5.25;;;;;;;;;;5094841;28;20047;-66
2021/01/22 14:02:01;;;;;;;16.40;7.13;;;;;;;;;;5094246;28;20024;-66
2021/01/22 14:04:28;;;;;;;13.00;5.35;;;;;;;;;;5088964;28;20082;-66